AirNav   Duncan Aviation - Near you to keep you flying
 
 640 users online  

5CL0 Grupe Ranch Airport
Mariposa, California, USA

GOING TO MARIPOSA?


FAA INFORMATION EFFECTIVE 11 AUGUST 2022

Location

FAA Identifier: 5CL0
Lat/Long: 37-20-25.7900N 119-51-43.5800W
37-20.429833N 119-51.726333W
37.3404972,-119.8621056
(estimated)
Elevation: 1625 ft. / 495 m (estimated)
Variation: 15E (1990)
From city: 10 miles SE of MARIPOSA, CA
Time zone: UTC -7 (UTC -8 during Standard Time)
Zip code: 95338

Airport Operations

Airport use: Private use. Permission required prior to landing
Activation date: 07/1993
Control tower: no
ARTCC: OAKLAND CENTER
FSS: RANCHO MURIETA FLIGHT SERVICE STATION
Attendance: UNATNDD
Wind indicator: yes
Segmented circle: no

Airport Communications

WX AWOS-3 at MPI (13 nm NW): 135.6 (209-966-2912)

Nearby radio navigation aids

VOR radial/distance  VOR name  Freq  Var
FRAr301/19.1FRIANT VORTAC115.6017E
HYPr059/26.7EL NIDO VOR/DME114.2015E

Airport Services

Runway Information

Runway 9/27

Dimensions: 2800 x 50 ft. / 853 x 15 m
Surface: asphalt
RUNWAY 9  RUNWAY 27
Traffic pattern: leftleft
Obstructions: none15 ft. pline, 100 ft. from runway

Airport Ownership and Management from official FAA records

Ownership: Privately-owned
Owner: GREENLAW FRITZ GRUPE JR
PO BOX 7576
STOCKTON, CA 95267
Phone 209-366-1400
Manager: KELLY WILLIAMS
PO BOX 207007
STOCKTON, CA 95267
Phone 209-401-3094
209-966-5578

Additional Remarks

FOR CD CTC OAKLAND ARTCC AT 510-745-3380.

Instrument Procedures

There are no published instrument procedures at 5CL0.

Some nearby airports with instrument procedures:

KMPI - Mariposa-Yosemite Airport (13 nm NW)
KMAE - Madera Municipal Airport (24 nm SW)
KMCE - Merced Regional Airport/Macready Field (31 nm W)
KMER - Castle Airport (34 nm W)
KFAT - Fresno Yosemite International Airport (35 nm S)
 
Loc | Ops | Rwys | IFR | FBO | Links
Com | Nav | Svcs | Stats | Notes
Area around 5CL0 (Grupe Ranch Airport)
 
Road maps at: MapQuest Bing Google
 
Aerial photo
No photo
 
Sectional chart

 
Airport distance calculator
Flying to Grupe Ranch Airport? Find the distance to fly.

From to 5CL0

Sunrise and sunset
Times for 15-Aug-2022
 Local
(UTC-7)
 Zulu
(UTC)
Morning civil twilight05:4912:49
Sunrise06:1713:17
Sunset19:5102:51
Evening civil twilight20:1903:19

Current date and time
Zulu (UTC)  16-Aug-2022 06:54:24
Local (UTC-7)  15-Aug-2022 23:54:24
 
METAR
KMAE 
25nm SW 
160553Z AUTO 29005KT 10SM CLR 24/11 A2978 RMK AO2 SLP080 T02440106 10389 20222 51009
KMCE 
31nm W 
160553Z AUTO 29004KT 10SM CLR 26/16 A2977 RMK AO2 SLP078 T02560156 10389 20256 53008
KMER 
34nm W 
160555Z AUTO 35003KT 10SM CLR 23/11 A2978 RMK AO1
KFAT 
34nm S 
160553Z 31004KT 10SM CLR 30/09 A2977 RMK AO2 SLP077 T03000089 10400 20300 50009
KO32 
45nm SE 
160635Z AUTO 22003KT 9SM CLR 23/11 A2976 RMK AO2 T02330114
KO22 
49nm NW 
160635Z AUTO 00000KT 10SM CLR 21/03 A2989 RMK A01
TAF
KMCE 
31nm W 
160520Z 1606/1706 34005KT P6SM SKC
KMER 
34nm W 
160520Z 1606/1706 32006KT P6SM SKC
KFAT 
34nm S 
160520Z 1606/1706 30007KT P6SM FEW200= TAF KVIS 160520Z 1606/1706 29007KT P6SM SKC
NOTAMs
Click for the latest NOTAMs
NOTAMs are issued by the DoD/FAA and will open in a separate window not controlled by AirNav.

 

 
 

Would you like to see your business listed on this page?

 If your business provides an interesting product or service to pilots, flight crews, aircraft, or users of the Grupe Ranch Airport, you should consider listing it here.  To start the listing process, click on the button below
 
Add a business
 

Other Pages about Grupe Ranch Airport

Update a link
 
Copyright © AirNav, LLC. All rights reserved. Privacy Policy  Contact